Oakfield, Maine
Current Conditions -  °F | °C
As of 6:53 AM on Friday 19 Dec 2014 (Local Time) from KHUL Reporting Station
Overcast Overcast  
Wind Chill: 14°   Ceiling: 1700
Heat Index: 24°   Visibility: 10mi
Dew Point: 20°   Wind: 10mph
Humidity: 84%   Direction: 310°NW
Pressure: 29.76"   Gusts: NA
Location:  46.1°N, 68.15°W
Report Text: KHUL 191153Z AUTO 31009KT 10SM OVC017 M04/M07 A2976 RMK AO2 SLP086 70002 T10441067 11033 21044 53018
Loading
Personal Weather Stations






























Interactive Weather Map New forecast layout! Learn more

10-Day Weather Forecast

Advertisements
Track Severe Weather on mobile